createdAt,value
2022-09-28T00:00:48.151Z,0.50
2022-09-28T00:05:49.933Z,0.68
2022-09-28T00:10:56.133Z,0.70
2022-09-28T00:16:05.209Z,0.40
2022-09-28T00:21:15.645Z,0.63
2022-09-28T00:26:17.430Z,0.50
2022-09-28T00:31:19.383Z,0.63
2022-09-28T00:36:21.377Z,0.60
2022-09-28T00:41:24.814Z,0.68
2022-09-28T00:46:35.544Z,0.70
2022-09-28T00:51:41.261Z,0.55
2022-09-28T00:56:45.928Z,0.57
2022-09-28T01:01:49.448Z,0.70
2022-09-28T01:06:52.311Z,0.57
2022-09-28T01:11:55.274Z,0.60
2022-09-28T01:17:30.744Z,0.60
2022-09-28T01:23:00.387Z,0.82
2022-09-28T01:28:11.809Z,0.90
2022-09-28T01:33:25.031Z,0.90
2022-09-28T01:38:47.628Z,0.98
2022-09-28T01:43:56.161Z,1.08
2022-09-28T01:49:02.069Z,1.05
2022-09-28T01:54:12.829Z,0.80
2022-09-28T01:59:22.621Z,0.82
2022-09-28T02:04:35.272Z,1.00
2022-09-28T02:09:48.833Z,0.80
2022-09-28T02:14:59.739Z,0.90
2022-09-28T02:20:01.888Z,0.98
2022-09-28T02:25:09.146Z,0.80
2022-09-28T02:30:11.577Z,0.93
2022-09-28T02:35:17.592Z,0.90
2022-09-28T02:40:29.158Z,1.20
2022-09-28T02:46:02.161Z,1.10
2022-09-28T02:51:13.555Z,0.93
2022-09-28T02:56:31.305Z,1.13
2022-09-28T03:01:33.115Z,1.23
2022-09-28T03:06:43.720Z,0.93
2022-09-28T03:11:51.123Z,1.10
2022-09-28T03:16:53.595Z,0.98
2022-09-28T03:21:55.763Z,0.90
2022-09-28T03:26:57.615Z,1.00
2022-09-28T03:31:59.595Z,1.42
2022-09-28T03:37:01.641Z,1.10
2022-09-28T03:42:03.664Z,0.90
2022-09-28T03:47:09.579Z,0.80
2022-09-28T03:52:12.747Z,1.10
2022-09-28T03:57:14.549Z,0.98
2022-09-28T04:02:16.608Z,1.00
2022-09-28T04:07:18.432Z,1.17
2022-09-28T04:12:20.533Z,0.90
2022-09-28T04:17:23.139Z,0.90
2022-09-28T04:22:25.083Z,0.65
2022-09-28T04:27:45.479Z,0.80
2022-09-28T04:32:47.887Z,0.65
2022-09-28T04:37:49.826Z,0.65
2022-09-28T04:42:55.698Z,1.30
2022-09-28T04:47:58.158Z,0.80
2022-09-28T04:53:23.809Z,0.95
2022-09-28T04:58:26.156Z,0.80
2022-09-28T05:03:28.747Z,0.93
2022-09-28T05:08:43.648Z,0.90
2022-09-28T05:13:45.974Z,0.90
2022-09-28T05:18:55.174Z,1.08
2022-09-28T05:23:58.515Z,1.20
2022-09-28T05:29:01.265Z,1.10
2022-09-28T05:34:21.621Z,1.30
2022-09-28T05:39:23.596Z,1.35
2022-09-28T05:44:25.988Z,1.98
2022-09-28T05:49:31.704Z,2.47
2022-09-28T05:54:35.517Z,1.95
2022-09-28T05:59:37.481Z,2.45
2022-09-28T06:04:40.130Z,2.30
2022-09-28T06:09:42.015Z,2.70
2022-09-28T06:14:51.944Z,2.75
2022-09-28T06:19:53.866Z,3.38
2022-09-28T06:25:10.449Z,3.45
2022-09-28T06:30:14.126Z,3.45
2022-09-28T06:35:16.207Z,3.45
2022-09-28T06:40:19.197Z,3.60
2022-09-28T06:45:24.578Z,3.30
2022-09-28T06:50:45.078Z,3.00
2022-09-28T06:56:03.539Z,3.50
2022-09-28T07:01:05.873Z,3.83
2022-09-28T07:06:18.615Z,5.50
2022-09-28T07:11:44.838Z,5.93
2022-09-28T07:17:13.536Z,5.80
2022-09-28T07:22:19.402Z,4.95
2022-09-28T07:27:26.802Z,4.47
2022-09-28T07:32:45.810Z,4.50
2022-09-28T07:38:00.470Z,4.57
2022-09-28T07:43:06.950Z,4.10
2022-09-28T07:48:09.089Z,3.22
2022-09-28T07:53:43.349Z,3.22
2022-09-28T07:59:05.410Z,3.17
2022-09-28T08:04:25.691Z,4.10
2022-09-28T08:09:27.543Z,4.85
2022-09-28T08:15:01.369Z,4.82
2022-09-28T08:21:00.549Z,4.97
2022-09-28T08:26:03.278Z,3.80
2022-09-28T08:31:07.511Z,3.75
2022-09-28T08:36:35.178Z,2.45
2022-09-28T08:42:19.154Z,2.10
2022-09-28T08:48:29.686Z,2.20
2022-09-28T08:54:20.680Z,1.50
2022-09-28T08:59:43.749Z,1.65
2022-09-28T09:04:52.956Z,1.83
2022-09-28T09:10:25.081Z,1.40
2022-09-28T09:15:48.262Z,1.60
2022-09-28T09:21:15.637Z,1.40
2022-09-28T09:26:24.681Z,1.45
2022-09-28T09:31:53.091Z,0.90
2022-09-28T09:36:57.990Z,0.60
2022-09-28T09:43:03.530Z,0.88
2022-09-28T09:48:45.791Z,0.90
2022-09-28T09:53:53.276Z,0.73
2022-09-28T09:59:02.877Z,0.60
2022-09-28T10:04:26.881Z,0.68
2022-09-28T10:09:46.012Z,0.75
2022-09-28T10:15:07.959Z,0.70
2022-09-28T10:20:23.142Z,0.82
2022-09-28T10:25:44.626Z,1.10
2022-09-28T10:30:46.979Z,1.05
2022-09-28T10:35:49.270Z,0.90
2022-09-28T10:40:56.999Z,1.00
2022-09-28T10:46:14.243Z,1.17
2022-09-28T10:56:48.050Z,1.33
2022-09-28T11:02:21.805Z,1.70
2022-09-28T11:07:32.535Z,1.45
2022-09-28T11:12:43.183Z,3.17
2022-09-28T11:17:45.478Z,3.13
2022-09-28T11:22:51.684Z,2.78
2022-09-28T11:27:59.312Z,1.38
2022-09-28T11:33:05.368Z,0.93
2022-09-28T11:38:41.002Z,0.40
2022-09-28T11:44:33.711Z,0.40
2022-09-28T11:49:50.289Z,0.45
2022-09-28T11:55:01.324Z,0.52
2022-09-28T12:00:13.265Z,0.70
2022-09-28T12:05:30.547Z,0.55
2022-09-28T12:10:39.405Z,0.43
2022-09-28T12:16:23.049Z,0.68
2022-09-28T12:21:40.873Z,0.50
2022-09-28T12:26:55.811Z,0.52
2022-09-28T12:32:18.707Z,0.40
2022-09-28T12:37:45.163Z,0.30
2022-09-28T12:43:05.754Z,0.50
2022-09-28T12:48:13.499Z,0.50
2022-09-28T12:53:41.785Z,0.43
2022-09-28T12:58:53.790Z,0.43
2022-09-28T13:03:58.391Z,0.68
2022-09-28T13:09:34.876Z,0.73
2022-09-28T13:15:05.613Z,0.98
2022-09-28T13:20:25.768Z,0.90
2022-09-28T13:25:31.288Z,0.60
2022-09-28T13:30:39.001Z,0.57
2022-09-28T13:35:44.414Z,0.50
2022-09-28T13:41:04.743Z,0.40
2022-09-28T13:46:20.474Z,0.88
2022-09-28T13:51:49.992Z,0.93
2022-09-28T13:57:09.994Z,1.00
2022-09-28T14:02:21.151Z,0.63
2022-09-28T14:12:45.298Z,0.93
2022-09-28T14:17:57.782Z,0.73
2022-09-28T14:23:27.344Z,0.60
2022-09-28T14:28:38.123Z,0.60
2022-09-28T14:33:42.809Z,0.98
2022-09-28T14:39:08.619Z,0.70
2022-09-28T14:44:12.858Z,0.65
2022-09-28T14:49:17.625Z,1.33
2022-09-28T14:54:25.606Z,1.30
2022-09-28T14:59:30.748Z,2.25
2022-09-28T15:04:39.405Z,0.85
2022-09-28T15:09:41.700Z,1.40
2022-09-28T15:14:47.820Z,0.73
2022-09-28T15:20:12.345Z,0.98
2022-09-28T15:25:20.609Z,1.30
2022-09-28T15:30:29.139Z,0.90
2022-09-28T15:35:31.025Z,1.10
2022-09-28T15:40:38.758Z,2.08
2022-09-28T15:45:40.718Z,1.70
2022-09-28T15:50:57.102Z,2.05
2022-09-28T15:56:05.724Z,1.80
2022-09-28T16:01:32.250Z,1.20
2022-09-28T16:06:34.315Z,1.23
2022-09-28T16:11:40.679Z,1.60
2022-09-28T16:16:51.317Z,3.22
2022-09-28T16:21:55.929Z,1.52
2022-09-28T16:27:23.200Z,3.13
2022-09-28T16:32:24.964Z,3.30
2022-09-28T16:37:31.934Z,8.35
2022-09-28T16:42:33.922Z,4.35
2022-09-28T16:47:36.079Z,2.28
2022-09-28T16:52:59.836Z,2.33
2022-09-28T16:58:04.721Z,1.50
2022-09-28T17:03:13.736Z,1.63
2022-09-28T17:08:22.298Z,2.75
2022-09-28T17:13:33.322Z,2.78
2022-09-28T17:18:39.227Z,1.75
2022-09-28T17:23:41.353Z,6.35
2022-09-28T17:28:43.146Z,47.88
2022-09-28T17:33:46.110Z,26.17
2022-09-28T17:38:49.630Z,11.43
2022-09-28T17:43:51.520Z,5.97
2022-09-28T17:48:54.360Z,5.07
2022-09-28T17:54:01.143Z,4.93
2022-09-28T17:59:06.067Z,5.82
2022-09-28T18:04:23.092Z,5.93
2022-09-28T18:09:34.459Z,6.30
2022-09-28T18:14:36.606Z,5.22
2022-09-28T18:19:38.808Z,8.40
2022-09-28T18:24:40.949Z,4.80
2022-09-28T18:29:43.247Z,5.20
2022-09-28T18:34:45.669Z,8.10
2022-09-28T18:39:47.817Z,8.70
2022-09-28T18:44:49.888Z,5.80
2022-09-28T18:49:52.042Z,5.57
2022-09-28T18:54:54.937Z,9.18
2022-09-28T18:59:57.207Z,4.03
2022-09-28T19:04:59.532Z,3.55
2022-09-28T19:10:01.766Z,3.50
2022-09-28T19:15:04.873Z,3.72
2022-09-28T19:20:07.395Z,2.67
2022-09-28T19:25:10.046Z,4.47
2022-09-28T19:30:12.715Z,4.35
2022-09-28T19:35:14.758Z,3.17
2022-09-28T19:40:16.718Z,3.70
2022-09-28T19:45:18.626Z,3.17
2022-09-28T19:50:20.474Z,3.33
2022-09-28T19:55:23.736Z,3.35
2022-09-28T20:00:25.762Z,3.40
2022-09-28T20:05:27.561Z,4.93
2022-09-28T20:10:29.603Z,3.78
2022-09-28T20:15:31.521Z,3.40
2022-09-28T20:20:33.373Z,3.38
2022-09-28T20:25:35.517Z,3.72
2022-09-28T20:30:37.432Z,4.72
2022-09-28T20:35:40.609Z,3.15
2022-09-28T20:40:42.472Z,3.10
2022-09-28T20:45:44.398Z,2.17
2022-09-28T20:50:46.177Z,2.47
2022-09-28T20:55:47.981Z,2.38
2022-09-28T21:00:49.797Z,2.10
2022-09-28T21:05:51.788Z,2.30
2022-09-28T21:10:54.371Z,2.72
2022-09-28T21:16:01.502Z,2.22
2022-09-28T21:21:09.334Z,2.20
2022-09-28T21:26:24.467Z,1.98
2022-09-28T21:31:29.698Z,2.47
2022-09-28T21:36:31.983Z,2.25
2022-09-28T21:41:33.869Z,1.98
2022-09-28T21:46:37.749Z,2.10
2022-09-28T21:51:39.651Z,2.22
2022-09-28T21:56:41.465Z,2.00
2022-09-28T22:01:44.376Z,1.92
2022-09-28T22:06:46.321Z,2.17
2022-09-28T22:11:49.234Z,1.67
2022-09-28T22:16:51.061Z,1.92
2022-09-28T22:21:52.875Z,1.95
2022-09-28T22:26:54.706Z,1.98
2022-09-28T22:32:02.191Z,1.85
2022-09-28T22:37:04.280Z,1.70
2022-09-28T22:42:06.178Z,2.22
2022-09-28T22:47:08.015Z,1.85
2022-09-28T22:52:09.809Z,2.30
2022-09-28T22:57:11.598Z,2.00
2022-09-28T23:02:13.421Z,1.50
2022-09-28T23:07:15.224Z,1.73
2022-09-28T23:12:17.245Z,2.28
2022-09-28T23:17:19.088Z,1.50
2022-09-28T23:22:20.905Z,1.38
2022-09-28T23:27:22.746Z,2.00
2022-09-28T23:32:28.543Z,2.28
2022-09-28T23:37:32.991Z,1.98
2022-09-28T23:42:35.578Z,1.80
2022-09-28T23:47:37.969Z,2.17
2022-09-28T23:52:39.790Z,1.67
2022-09-28T23:57:43.867Z,2.00
